sensor_id;sensor_type;location;lat;lon;timestamp;P1;durP1;ratioP1;P2;durP2;ratioP2
18251;SDS011;26917;52.328;20.878;2023-03-14T00:01:07;11.30;;;7.50;;
18251;SDS011;26917;52.328;20.878;2023-03-14T00:03:37;12.35;;;7.10;;
18251;SDS011;26917;52.328;20.878;2023-03-14T00:06:06;12.63;;;6.85;;
18251;SDS011;26917;52.328;20.878;2023-03-14T00:08:35;14.00;;;7.10;;
18251;SDS011;26917;52.328;20.878;2023-03-14T00:11:05;13.30;;;7.47;;
18251;SDS011;26917;52.328;20.878;2023-03-14T00:13:34;13.13;;;6.93;;
18251;SDS011;26917;52.328;20.878;2023-03-14T00:16:03;12.73;;;7.15;;
18251;SDS011;26917;52.328;20.878;2023-03-14T00:18:32;13.55;;;7.18;;
18251;SDS011;26917;52.328;20.878;2023-03-14T00:21:02;12.07;;;7.30;;
18251;SDS011;26917;52.328;20.878;2023-03-14T00:23:33;13.02;;;7.18;;
18251;SDS011;26917;52.328;20.878;2023-03-14T00:26:04;12.52;;;6.90;;
18251;SDS011;26917;52.328;20.878;2023-03-14T00:28:34;13.00;;;6.72;;
18251;SDS011;26917;52.328;20.878;2023-03-14T00:31:03;15.63;;;7.00;;
18251;SDS011;26917;52.328;20.878;2023-03-14T00:33:32;26.20;;;6.57;;
18251;SDS011;26917;52.328;20.878;2023-03-14T00:36:04;9.23;;;6.68;;
18251;SDS011;26917;52.328;20.878;2023-03-14T00:38:36;13.27;;;7.15;;
18251;SDS011;26917;52.328;20.878;2023-03-14T00:41:06;12.30;;;7.18;;
18251;SDS011;26917;52.328;20.878;2023-03-14T00:43:36;13.77;;;7.78;;
18251;SDS011;26917;52.328;20.878;2023-03-14T00:46:05;18.50;;;7.18;;
18251;SDS011;26917;52.328;20.878;2023-03-14T00:48:34;14.43;;;6.70;;
18251;SDS011;26917;52.328;20.878;2023-03-14T00:51:05;16.73;;;7.45;;
18251;SDS011;26917;52.328;20.878;2023-03-14T00:53:36;13.82;;;7.57;;
18251;SDS011;26917;52.328;20.878;2023-03-14T00:56:06;11.82;;;6.95;;
18251;SDS011;26917;52.328;20.878;2023-03-14T00:58:36;10.57;;;6.90;;
18251;SDS011;26917;52.328;20.878;2023-03-14T01:01:06;12.70;;;6.97;;
18251;SDS011;26917;52.328;20.878;2023-03-14T01:03:35;15.45;;;6.68;;
18251;SDS011;26917;52.328;20.878;2023-03-14T01:06:08;13.02;;;6.85;;
18251;SDS011;26917;52.328;20.878;2023-03-14T01:08:38;14.60;;;7.47;;
18251;SDS011;26917;52.328;20.878;2023-03-14T01:11:08;16.35;;;6.88;;
18251;SDS011;26917;52.328;20.878;2023-03-14T01:13:37;11.50;;;6.78;;
18251;SDS011;26917;52.328;20.878;2023-03-14T01:16:07;12.85;;;6.65;;
18251;SDS011;26917;52.328;20.878;2023-03-14T01:18:37;11.82;;;6.72;;
18251;SDS011;26917;52.328;20.878;2023-03-14T01:21:11;11.10;;;7.30;;
18251;SDS011;26917;52.328;20.878;2023-03-14T01:23:42;12.05;;;6.97;;
18251;SDS011;26917;52.328;20.878;2023-03-14T01:26:12;13.75;;;7.60;;
18251;SDS011;26917;52.328;20.878;2023-03-14T01:28:42;14.10;;;7.38;;
18251;SDS011;26917;52.328;20.878;2023-03-14T01:31:11;12.68;;;6.80;;
18251;SDS011;26917;52.328;20.878;2023-03-14T01:33:40;12.60;;;6.80;;
18251;SDS011;26917;52.328;20.878;2023-03-14T01:36:11;12.02;;;7.30;;
18251;SDS011;26917;52.328;20.878;2023-03-14T01:38:41;13.20;;;7.40;;
18251;SDS011;26917;52.328;20.878;2023-03-14T01:41:13;16.85;;;7.30;;
18251;SDS011;26917;52.328;20.878;2023-03-14T01:43:46;14.25;;;8.13;;
18251;SDS011;26917;52.328;20.878;2023-03-14T01:46:19;14.60;;;7.07;;
18251;SDS011;26917;52.328;20.878;2023-03-14T01:48:52;10.77;;;7.50;;
18251;SDS011;26917;52.328;20.878;2023-03-14T01:51:36;12.45;;;7.25;;
18251;SDS011;26917;52.328;20.878;2023-03-14T01:54:12;16.50;;;8.02;;
18251;SDS011;26917;52.328;20.878;2023-03-14T01:56:47;10.43;;;6.72;;
18251;SDS011;26917;52.328;20.878;2023-03-14T01:59:18;11.32;;;7.00;;
18251;SDS011;26917;52.328;20.878;2023-03-14T02:01:47;13.05;;;7.75;;
18251;SDS011;26917;52.328;20.878;2023-03-14T02:04:18;12.95;;;7.80;;
18251;SDS011;26917;52.328;20.878;2023-03-14T02:06:50;16.25;;;7.85;;
18251;SDS011;26917;52.328;20.878;2023-03-14T02:09:26;14.27;;;7.43;;
18251;SDS011;26917;52.328;20.878;2023-03-14T02:11:55;15.27;;;8.65;;
18251;SDS011;26917;52.328;20.878;2023-03-14T02:14:50;16.35;;;8.02;;
18251;SDS011;26917;52.328;20.878;2023-03-14T02:17:23;13.82;;;7.43;;
18251;SDS011;26917;52.328;20.878;2023-03-14T02:20:14;14.18;;;7.88;;
18251;SDS011;26917;52.328;20.878;2023-03-14T02:22:56;17.80;;;7.85;;
18251;SDS011;26917;52.328;20.878;2023-03-14T02:25:28;13.32;;;7.43;;
18251;SDS011;26917;52.328;20.878;2023-03-14T02:28:08;15.25;;;8.15;;
18251;SDS011;26917;52.328;20.878;2023-03-14T02:30:38;14.93;;;7.50;;
18251;SDS011;26917;52.328;20.878;2023-03-14T02:33:07;12.27;;;7.47;;
18251;SDS011;26917;52.328;20.878;2023-03-14T02:35:39;17.25;;;8.07;;
18251;SDS011;26917;52.328;20.878;2023-03-14T02:38:10;15.68;;;7.20;;
18251;SDS011;26917;52.328;20.878;2023-03-14T02:40:47;13.63;;;7.22;;
18251;SDS011;26917;52.328;20.878;2023-03-14T02:43:17;14.30;;;7.55;;
18251;SDS011;26917;52.328;20.878;2023-03-14T02:45:52;12.30;;;7.70;;
18251;SDS011;26917;52.328;20.878;2023-03-14T02:48:24;14.68;;;8.50;;
18251;SDS011;26917;52.328;20.878;2023-03-14T02:50:55;17.42;;;7.78;;
18251;SDS011;26917;52.328;20.878;2023-03-14T02:53:26;15.32;;;8.25;;
18251;SDS011;26917;52.328;20.878;2023-03-14T02:55:59;10.90;;;7.35;;
18251;SDS011;26917;52.328;20.878;2023-03-14T02:58:32;13.90;;;7.82;;
18251;SDS011;26917;52.328;20.878;2023-03-14T03:01:09;11.13;;;7.50;;
18251;SDS011;26917;52.328;20.878;2023-03-14T03:03:37;15.45;;;7.63;;
18251;SDS011;26917;52.328;20.878;2023-03-14T03:06:06;14.13;;;7.72;;
18251;SDS011;26917;52.328;20.878;2023-03-14T03:08:35;14.25;;;8.65;;
18251;SDS011;26917;52.328;20.878;2023-03-14T03:11:03;16.92;;;7.75;;
18251;SDS011;26917;52.328;20.878;2023-03-14T03:13:34;12.73;;;7.18;;
18251;SDS011;26917;52.328;20.878;2023-03-14T03:16:04;13.80;;;8.13;;
18251;SDS011;26917;52.328;20.878;2023-03-14T03:18:34;14.95;;;7.47;;
18251;SDS011;26917;52.328;20.878;2023-03-14T03:21:03;14.77;;;8.27;;
18251;SDS011;26917;52.328;20.878;2023-03-14T03:23:35;13.38;;;7.57;;
18251;SDS011;26917;52.328;20.878;2023-03-14T03:26:05;17.33;;;8.50;;
18251;SDS011;26917;52.328;20.878;2023-03-14T03:28:35;13.95;;;7.88;;
18251;SDS011;26917;52.328;20.878;2023-03-14T03:31:07;17.35;;;8.02;;
18251;SDS011;26917;52.328;20.878;2023-03-14T03:33:37;18.55;;;8.88;;
18251;SDS011;26917;52.328;20.878;2023-03-14T03:36:07;14.45;;;7.30;;
18251;SDS011;26917;52.328;20.878;2023-03-14T03:38:38;17.45;;;8.45;;
18251;SDS011;26917;52.328;20.878;2023-03-14T03:41:08;16.25;;;7.32;;
18251;SDS011;26917;52.328;20.878;2023-03-14T03:43:41;14.70;;;7.90;;
18251;SDS011;26917;52.328;20.878;2023-03-14T03:46:12;11.63;;;7.07;;
18251;SDS011;26917;52.328;20.878;2023-03-14T03:48:41;12.60;;;7.45;;
18251;SDS011;26917;52.328;20.878;2023-03-14T03:51:11;16.50;;;7.65;;
18251;SDS011;26917;52.328;20.878;2023-03-14T03:53:42;14.00;;;7.80;;
18251;SDS011;26917;52.328;20.878;2023-03-14T03:56:13;12.00;;;7.95;;
18251;SDS011;26917;52.328;20.878;2023-03-14T03:58:44;12.73;;;7.65;;
18251;SDS011;26917;52.328;20.878;2023-03-14T04:01:12;16.08;;;6.85;;
18251;SDS011;26917;52.328;20.878;2023-03-14T04:03:43;17.90;;;7.45;;
18251;SDS011;26917;52.328;20.878;2023-03-14T04:06:12;13.35;;;7.95;;
18251;SDS011;26917;52.328;20.878;2023-03-14T04:08:44;11.00;;;6.78;;
18251;SDS011;26917;52.328;20.878;2023-03-14T04:11:39;11.57;;;7.30;;
18251;SDS011;26917;52.328;20.878;2023-03-14T04:14:21;14.27;;;7.10;;
18251;SDS011;26917;52.328;20.878;2023-03-14T04:17:01;12.07;;;7.25;;
18251;SDS011;26917;52.328;20.878;2023-03-14T04:19:29;14.15;;;7.07;;
18251;SDS011;26917;52.328;20.878;2023-03-14T04:21:58;10.35;;;7.10;;
18251;SDS011;26917;52.328;20.878;2023-03-14T04:24:32;12.20;;;8.10;;
18251;SDS011;26917;52.328;20.878;2023-03-14T04:27:01;10.73;;;7.00;;
18251;SDS011;26917;52.328;20.878;2023-03-14T04:29:33;13.57;;;6.78;;
18251;SDS011;26917;52.328;20.878;2023-03-14T04:32:01;10.50;;;6.38;;
18251;SDS011;26917;52.328;20.878;2023-03-14T04:34:30;10.23;;;6.30;;
18251;SDS011;26917;52.328;20.878;2023-03-14T04:36:58;12.20;;;7.25;;
18251;SDS011;26917;52.328;20.878;2023-03-14T04:39:34;11.77;;;6.90;;
18251;SDS011;26917;52.328;20.878;2023-03-14T04:42:15;10.77;;;7.28;;
18251;SDS011;26917;52.328;20.878;2023-03-14T04:44:45;11.23;;;6.63;;
18251;SDS011;26917;52.328;20.878;2023-03-14T04:47:19;20.88;;;6.65;;
18251;SDS011;26917;52.328;20.878;2023-03-14T04:49:48;12.50;;;6.25;;
18251;SDS011;26917;52.328;20.878;2023-03-14T04:52:17;9.65;;;6.78;;
18251;SDS011;26917;52.328;20.878;2023-03-14T04:54:46;13.88;;;7.53;;
18251;SDS011;26917;52.328;20.878;2023-03-14T04:57:16;10.88;;;6.72;;
18251;SDS011;26917;52.328;20.878;2023-03-14T04:59:47;9.48;;;6.18;;
18251;SDS011;26917;52.328;20.878;2023-03-14T05:02:41;7.85;;;5.63;;
18251;SDS011;26917;52.328;20.878;2023-03-14T05:05:20;10.07;;;6.45;;
18251;SDS011;26917;52.328;20.878;2023-03-14T05:08:11;11.15;;;6.15;;
18251;SDS011;26917;52.328;20.878;2023-03-14T05:10:40;12.57;;;5.90;;
18251;SDS011;26917;52.328;20.878;2023-03-14T05:13:29;10.95;;;6.72;;
18251;SDS011;26917;52.328;20.878;2023-03-14T05:16:22;10.18;;;6.10;;
18251;SDS011;26917;52.328;20.878;2023-03-14T05:19:00;9.30;;;6.03;;
18251;SDS011;26917;52.328;20.878;2023-03-14T05:21:42;12.63;;;6.18;;
18251;SDS011;26917;52.328;20.878;2023-03-14T05:24:29;12.50;;;6.25;;
18251;SDS011;26917;52.328;20.878;2023-03-14T05:26:58;10.80;;;6.47;;
18251;SDS011;26917;52.328;20.878;2023-03-14T05:29:42;9.82;;;5.68;;
18251;SDS011;26917;52.328;20.878;2023-03-14T05:32:18;7.43;;;5.78;;
18251;SDS011;26917;52.328;20.878;2023-03-14T05:35:02;12.85;;;5.60;;
18251;SDS011;26917;52.328;20.878;2023-03-14T05:37:50;9.35;;;5.90;;
18251;SDS011;26917;52.328;20.878;2023-03-14T05:40:40;8.82;;;5.63;;
18251;SDS011;26917;52.328;20.878;2023-03-14T05:43:16;8.07;;;6.25;;
18251;SDS011;26917;52.328;20.878;2023-03-14T05:46:16;10.15;;;5.90;;
18251;SDS011;26917;52.328;20.878;2023-03-14T05:48:49;12.65;;;6.75;;
18251;SDS011;26917;52.328;20.878;2023-03-14T05:51:41;9.95;;;6.03;;
18251;SDS011;26917;52.328;20.878;2023-03-14T05:54:22;10.93;;;5.40;;
18251;SDS011;26917;52.328;20.878;2023-03-14T05:57:09;8.85;;;5.90;;
18251;SDS011;26917;52.328;20.878;2023-03-14T06:00:13;8.95;;;6.38;;
18251;SDS011;26917;52.328;20.878;2023-03-14T06:02:53;9.45;;;6.72;;
18251;SDS011;26917;52.328;20.878;2023-03-14T06:05:29;14.50;;;5.97;;
18251;SDS011;26917;52.328;20.878;2023-03-14T06:08:00;8.27;;;5.75;;
18251;SDS011;26917;52.328;20.878;2023-03-14T06:10:30;8.43;;;5.40;;
18251;SDS011;26917;52.328;20.878;2023-03-14T06:12:59;11.48;;;5.47;;
18251;SDS011;26917;52.328;20.878;2023-03-14T06:15:27;7.45;;;5.32;;
18251;SDS011;26917;52.328;20.878;2023-03-14T06:17:57;10.50;;;5.65;;
18251;SDS011;26917;52.328;20.878;2023-03-14T06:20:26;9.20;;;5.35;;
18251;SDS011;26917;52.328;20.878;2023-03-14T06:22:57;9.32;;;5.45;;
18251;SDS011;26917;52.328;20.878;2023-03-14T06:25:25;10.95;;;6.03;;
18251;SDS011;26917;52.328;20.878;2023-03-14T06:27:54;8.02;;;5.50;;
18251;SDS011;26917;52.328;20.878;2023-03-14T06:30:22;13.50;;;6.15;;
18251;SDS011;26917;52.328;20.878;2023-03-14T06:32:52;10.65;;;5.88;;
18251;SDS011;26917;52.328;20.878;2023-03-14T06:35:22;8.85;;;6.00;;
18251;SDS011;26917;52.328;20.878;2023-03-14T06:37:51;10.57;;;5.97;;
18251;SDS011;26917;52.328;20.878;2023-03-14T06:40:21;10.25;;;5.85;;
18251;SDS011;26917;52.328;20.878;2023-03-14T06:43:08;10.50;;;5.75;;
18251;SDS011;26917;52.328;20.878;2023-03-14T06:45:38;8.90;;;6.25;;
18251;SDS011;26917;52.328;20.878;2023-03-14T06:48:07;7.55;;;5.22;;
18251;SDS011;26917;52.328;20.878;2023-03-14T06:50:39;12.20;;;5.70;;
18251;SDS011;26917;52.328;20.878;2023-03-14T06:53:07;10.70;;;5.40;;
18251;SDS011;26917;52.328;20.878;2023-03-14T06:55:41;9.27;;;5.05;;
18251;SDS011;26917;52.328;20.878;2023-03-14T06:58:10;10.70;;;6.00;;
18251;SDS011;26917;52.328;20.878;2023-03-14T07:00:41;8.05;;;5.50;;
18251;SDS011;26917;52.328;20.878;2023-03-14T07:03:13;16.02;;;6.20;;
18251;SDS011;26917;52.328;20.878;2023-03-14T07:05:47;8.50;;;5.05;;
18251;SDS011;26917;52.328;20.878;2023-03-14T07:08:15;11.90;;;5.70;;
18251;SDS011;26917;52.328;20.878;2023-03-14T07:10:45;8.13;;;5.43;;
18251;SDS011;26917;52.328;20.878;2023-03-14T07:13:15;8.27;;;5.40;;
18251;SDS011;26917;52.328;20.878;2023-03-14T07:15:53;5.53;;;4.13;;
18251;SDS011;26917;52.328;20.878;2023-03-14T07:18:22;7.50;;;4.97;;
18251;SDS011;26917;52.328;20.878;2023-03-14T07:20:50;10.38;;;5.60;;
18251;SDS011;26917;52.328;20.878;2023-03-14T07:23:19;7.03;;;5.53;;
18251;SDS011;26917;52.328;20.878;2023-03-14T07:25:51;7.15;;;4.95;;
18251;SDS011;26917;52.328;20.878;2023-03-14T07:28:23;8.68;;;4.93;;
18251;SDS011;26917;52.328;20.878;2023-03-14T07:31:00;9.57;;;5.40;;
18251;SDS011;26917;52.328;20.878;2023-03-14T07:33:31;5.47;;;4.57;;
18251;SDS011;26917;52.328;20.878;2023-03-14T07:36:00;7.63;;;5.20;;
18251;SDS011;26917;52.328;20.878;2023-03-14T07:38:30;6.45;;;4.72;;
18251;SDS011;26917;52.328;20.878;2023-03-14T07:41:15;10.25;;;5.10;;
18251;SDS011;26917;52.328;20.878;2023-03-14T07:44:06;7.53;;;4.80;;
18251;SDS011;26917;52.328;20.878;2023-03-14T07:46:35;6.85;;;5.10;;
18251;SDS011;26917;52.328;20.878;2023-03-14T07:49:03;8.35;;;5.50;;
18251;SDS011;26917;52.328;20.878;2023-03-14T07:51:31;7.60;;;5.22;;
18251;SDS011;26917;52.328;20.878;2023-03-14T07:54:00;7.40;;;4.85;;
18251;SDS011;26917;52.328;20.878;2023-03-14T07:56:30;6.68;;;4.72;;
18251;SDS011;26917;52.328;20.878;2023-03-14T07:58:58;13.15;;;5.50;;
18251;SDS011;26917;52.328;20.878;2023-03-14T08:01:27;10.15;;;4.65;;
18251;SDS011;26917;52.328;20.878;2023-03-14T08:03:56;11.68;;;5.80;;
18251;SDS011;26917;52.328;20.878;2023-03-14T08:06:24;9.77;;;5.70;;
18251;SDS011;26917;52.328;20.878;2023-03-14T08:08:53;13.30;;;5.60;;
18251;SDS011;26917;52.328;20.878;2023-03-14T08:11:21;8.52;;;4.75;;
18251;SDS011;26917;52.328;20.878;2023-03-14T08:13:51;9.88;;;5.57;;
18251;SDS011;26917;52.328;20.878;2023-03-14T08:16:19;8.63;;;4.35;;
18251;SDS011;26917;52.328;20.878;2023-03-14T08:18:48;7.50;;;4.60;;
18251;SDS011;26917;52.328;20.878;2023-03-14T08:21:16;6.55;;;4.13;;
18251;SDS011;26917;52.328;20.878;2023-03-14T08:23:44;9.65;;;4.32;;
18251;SDS011;26917;52.328;20.878;2023-03-14T08:26:13;5.10;;;3.97;;
18251;SDS011;26917;52.328;20.878;2023-03-14T08:28:41;10.10;;;4.40;;
18251;SDS011;26917;52.328;20.878;2023-03-14T08:31:11;6.97;;;4.22;;
18251;SDS011;26917;52.328;20.878;2023-03-14T08:33:40;7.85;;;4.28;;
18251;SDS011;26917;52.328;20.878;2023-03-14T08:36:08;10.00;;;4.32;;
18251;SDS011;26917;52.328;20.878;2023-03-14T08:38:37;9.88;;;3.88;;
18251;SDS011;26917;52.328;20.878;2023-03-14T08:41:09;7.28;;;4.40;;
18251;SDS011;26917;52.328;20.878;2023-03-14T08:43:37;6.07;;;3.72;;
18251;SDS011;26917;52.328;20.878;2023-03-14T08:46:06;6.50;;;4.20;;
18251;SDS011;26917;52.328;20.878;2023-03-14T08:48:36;11.93;;;4.25;;
18251;SDS011;26917;52.328;20.878;2023-03-14T08:51:05;7.38;;;4.30;;
18251;SDS011;26917;52.328;20.878;2023-03-14T08:53:35;6.20;;;4.47;;
18251;SDS011;26917;52.328;20.878;2023-03-14T08:56:04;7.00;;;4.45;;
18251;SDS011;26917;52.328;20.878;2023-03-14T08:58:33;6.93;;;3.90;;
18251;SDS011;26917;52.328;20.878;2023-03-14T09:01:03;8.10;;;4.65;;
18251;SDS011;26917;52.328;20.878;2023-03-14T09:03:32;8.35;;;4.78;;
18251;SDS011;26917;52.328;20.878;2023-03-14T09:06:04;5.35;;;3.90;;
18251;SDS011;26917;52.328;20.878;2023-03-14T09:08:35;9.20;;;4.60;;
18251;SDS011;26917;52.328;20.878;2023-03-14T09:11:06;15.43;;;4.28;;
18251;SDS011;26917;52.328;20.878;2023-03-14T09:13:35;8.38;;;4.50;;
18251;SDS011;26917;52.328;20.878;2023-03-14T09:16:03;12.32;;;4.10;;
18251;SDS011;26917;52.328;20.878;2023-03-14T09:18:33;5.82;;;3.28;;
18251;SDS011;26917;52.328;20.878;2023-03-14T09:21:02;9.30;;;3.83;;
18251;SDS011;26917;52.328;20.878;2023-03-14T09:23:32;9.18;;;4.03;;
18251;SDS011;26917;52.328;20.878;2023-03-14T09:26:00;6.97;;;3.80;;
18251;SDS011;26917;52.328;20.878;2023-03-14T09:28:28;6.38;;;3.60;;
18251;SDS011;26917;52.328;20.878;2023-03-14T09:30:57;8.10;;;4.15;;
18251;SDS011;26917;52.328;20.878;2023-03-14T09:33:25;4.28;;;3.50;;
18251;SDS011;26917;52.328;20.878;2023-03-14T09:35:54;7.13;;;3.65;;
18251;SDS011;26917;52.328;20.878;2023-03-14T09:38:28;6.63;;;4.30;;
18251;SDS011;26917;52.328;20.878;2023-03-14T09:40:57;6.05;;;3.53;;
18251;SDS011;26917;52.328;20.878;2023-03-14T09:43:28;5.40;;;3.60;;
18251;SDS011;26917;52.328;20.878;2023-03-14T09:45:59;5.65;;;3.78;;
18251;SDS011;26917;52.328;20.878;2023-03-14T09:48:31;7.63;;;3.58;;
18251;SDS011;26917;52.328;20.878;2023-03-14T09:51:01;14.20;;;3.88;;
18251;SDS011;26917;52.328;20.878;2023-03-14T09:53:41;7.28;;;4.05;;
18251;SDS011;26917;52.328;20.878;2023-03-14T09:56:11;7.57;;;4.05;;
18251;SDS011;26917;52.328;20.878;2023-03-14T09:58:45;5.40;;;3.58;;
18251;SDS011;26917;52.328;20.878;2023-03-14T10:01:20;9.43;;;3.67;;
18251;SDS011;26917;52.328;20.878;2023-03-14T10:03:53;6.90;;;3.60;;
18251;SDS011;26917;52.328;20.878;2023-03-14T10:06:25;7.05;;;3.50;;
18251;SDS011;26917;52.328;20.878;2023-03-14T10:08:57;5.68;;;3.17;;
18251;SDS011;26917;52.328;20.878;2023-03-14T10:11:25;11.88;;;3.70;;
18251;SDS011;26917;52.328;20.878;2023-03-14T10:14:04;6.43;;;3.67;;
18251;SDS011;26917;52.328;20.878;2023-03-14T10:16:34;8.35;;;3.30;;
18251;SDS011;26917;52.328;20.878;2023-03-14T10:19:05;6.40;;;3.80;;
18251;SDS011;26917;52.328;20.878;2023-03-14T10:21:38;8.27;;;3.92;;
18251;SDS011;26917;52.328;20.878;2023-03-14T10:24:18;7.05;;;3.60;;
18251;SDS011;26917;52.328;20.878;2023-03-14T10:26:49;11.27;;;3.90;;
18251;SDS011;26917;52.328;20.878;2023-03-14T10:29:20;6.57;;;3.30;;
18251;SDS011;26917;52.328;20.878;2023-03-14T10:31:52;6.35;;;3.35;;
18251;SDS011;26917;52.328;20.878;2023-03-14T10:34:26;7.80;;;3.97;;
18251;SDS011;26917;52.328;20.878;2023-03-14T10:36:57;5.78;;;3.80;;
18251;SDS011;26917;52.328;20.878;2023-03-14T10:39:29;6.63;;;3.45;;
18251;SDS011;26917;52.328;20.878;2023-03-14T10:42:06;8.90;;;4.18;;
18251;SDS011;26917;52.328;20.878;2023-03-14T10:44:42;5.65;;;3.88;;
18251;SDS011;26917;52.328;20.878;2023-03-14T10:47:15;6.13;;;4.00;;
18251;SDS011;26917;52.328;20.878;2023-03-14T10:49:47;9.35;;;4.20;;
18251;SDS011;26917;52.328;20.878;2023-03-14T10:52:19;5.60;;;3.92;;
18251;SDS011;26917;52.328;20.878;2023-03-14T10:55:11;5.18;;;3.15;;
18251;SDS011;26917;52.328;20.878;2023-03-14T10:57:40;4.75;;;3.35;;
18251;SDS011;26917;52.328;20.878;2023-03-14T11:00:12;9.40;;;3.70;;
18251;SDS011;26917;52.328;20.878;2023-03-14T11:02:48;9.20;;;4.03;;
18251;SDS011;26917;52.328;20.878;2023-03-14T11:05:30;9.18;;;4.28;;
18251;SDS011;26917;52.328;20.878;2023-03-14T11:08:02;4.10;;;3.20;;
18251;SDS011;26917;52.328;20.878;2023-03-14T11:10:42;6.03;;;3.55;;
18251;SDS011;26917;52.328;20.878;2023-03-14T11:13:23;6.13;;;3.42;;
18251;SDS011;26917;52.328;20.878;2023-03-14T11:16:01;6.95;;;3.55;;
18251;SDS011;26917;52.328;20.878;2023-03-14T11:18:49;8.65;;;3.28;;
18251;SDS011;26917;52.328;20.878;2023-03-14T11:21:40;10.73;;;4.47;;
18251;SDS011;26917;52.328;20.878;2023-03-14T11:24:21;10.07;;;3.97;;
18251;SDS011;26917;52.328;20.878;2023-03-14T11:27:03;6.25;;;3.78;;
18251;SDS011;26917;52.328;20.878;2023-03-14T11:29:40;4.82;;;3.42;;
18251;SDS011;26917;52.328;20.878;2023-03-14T11:32:12;9.35;;;4.57;;
18251;SDS011;26917;52.328;20.878;2023-03-14T11:34:44;7.32;;;4.05;;
18251;SDS011;26917;52.328;20.878;2023-03-14T11:37:21;5.57;;;3.65;;
18251;SDS011;26917;52.328;20.878;2023-03-14T11:39:56;5.25;;;3.83;;
18251;SDS011;26917;52.328;20.878;2023-03-14T11:42:32;11.90;;;3.78;;
18251;SDS011;26917;52.328;20.878;2023-03-14T11:45:00;7.82;;;4.20;;
18251;SDS011;26917;52.328;20.878;2023-03-14T11:47:30;6.97;;;4.03;;
18251;SDS011;26917;52.328;20.878;2023-03-14T11:50:03;9.32;;;4.15;;
18251;SDS011;26917;52.328;20.878;2023-03-14T11:52:41;10.02;;;4.75;;
18251;SDS011;26917;52.328;20.878;2023-03-14T11:55:17;8.23;;;4.70;;
18251;SDS011;26917;52.328;20.878;2023-03-14T11:57:55;9.68;;;4.63;;
18251;SDS011;26917;52.328;20.878;2023-03-14T12:00:27;6.60;;;3.72;;
18251;SDS011;26917;52.328;20.878;2023-03-14T12:02:58;8.98;;;5.07;;
18251;SDS011;26917;52.328;20.878;2023-03-14T12:05:37;8.30;;;4.78;;
18251;SDS011;26917;52.328;20.878;2023-03-14T12:11:12;9.27;;;4.88;;
18251;SDS011;26917;52.328;20.878;2023-03-14T12:13:47;8.57;;;4.05;;
18251;SDS011;26917;52.328;20.878;2023-03-14T12:16:32;7.40;;;4.40;;
18251;SDS011;26917;52.328;20.878;2023-03-14T12:19:13;11.48;;;4.43;;
18251;SDS011;26917;52.328;20.878;2023-03-14T12:25:13;9.00;;;4.97;;
18251;SDS011;26917;52.328;20.878;2023-03-14T12:27:46;7.47;;;4.72;;
18251;SDS011;26917;52.328;20.878;2023-03-14T12:30:34;9.05;;;5.07;;
18251;SDS011;26917;52.328;20.878;2023-03-14T12:36:01;7.93;;;4.88;;
18251;SDS011;26917;52.328;20.878;2023-03-14T12:38:52;9.25;;;5.10;;
18251;SDS011;26917;52.328;20.878;2023-03-14T12:41:29;11.27;;;5.65;;
18251;SDS011;26917;52.328;20.878;2023-03-14T12:50:15;11.25;;;5.72;;
18251;SDS011;26917;52.328;20.878;2023-03-14T12:52:55;7.95;;;5.22;;
18251;SDS011;26917;52.328;20.878;2023-03-14T12:55:38;10.32;;;5.28;;
18251;SDS011;26917;52.328;20.878;2023-03-14T12:58:15;12.07;;;6.22;;
18251;SDS011;26917;52.328;20.878;2023-03-14T13:00:51;8.02;;;6.40;;
18251;SDS011;26917;52.328;20.878;2023-03-14T13:03:25;10.68;;;6.07;;
18251;SDS011;26917;52.328;20.878;2023-03-14T13:06:04;12.95;;;6.32;;
18251;SDS011;26917;52.328;20.878;2023-03-14T13:08:34;10.02;;;5.88;;
18251;SDS011;26917;52.328;20.878;2023-03-14T13:11:07;10.80;;;6.70;;
18251;SDS011;26917;52.328;20.878;2023-03-14T13:13:41;17.30;;;7.47;;
18251;SDS011;26917;52.328;20.878;2023-03-14T13:16:15;11.88;;;6.90;;
18251;SDS011;26917;52.328;20.878;2023-03-14T13:18:46;11.80;;;7.05;;
18251;SDS011;26917;52.328;20.878;2023-03-14T13:21:17;13.40;;;7.53;;
18251;SDS011;26917;52.328;20.878;2023-03-14T13:23:57;12.85;;;7.88;;
18251;SDS011;26917;52.328;20.878;2023-03-14T13:26:32;13.75;;;7.63;;
18251;SDS011;26917;52.328;20.878;2023-03-14T13:29:08;15.13;;;7.53;;
18251;SDS011;26917;52.328;20.878;2023-03-14T13:31:43;14.70;;;7.75;;
18251;SDS011;26917;52.328;20.878;2023-03-14T13:34:13;15.70;;;8.25;;
18251;SDS011;26917;52.328;20.878;2023-03-14T13:36:42;8.90;;;6.95;;
18251;SDS011;26917;52.328;20.878;2023-03-14T13:39:11;15.68;;;7.47;;
18251;SDS011;26917;52.328;20.878;2023-03-14T13:41:43;12.35;;;7.55;;
18251;SDS011;26917;52.328;20.878;2023-03-14T13:44:13;14.07;;;8.10;;
18251;SDS011;26917;52.328;20.878;2023-03-14T13:46:45;18.92;;;8.35;;
18251;SDS011;26917;52.328;20.878;2023-03-14T13:49:17;13.60;;;7.60;;
18251;SDS011;26917;52.328;20.878;2023-03-14T13:51:49;14.55;;;7.47;;
18251;SDS011;26917;52.328;20.878;2023-03-14T13:54:18;15.98;;;8.40;;
18251;SDS011;26917;52.328;20.878;2023-03-14T13:56:48;15.43;;;8.15;;
18251;SDS011;26917;52.328;20.878;2023-03-14T13:59:27;17.67;;;7.10;;
18251;SDS011;26917;52.328;20.878;2023-03-14T14:01:56;14.05;;;7.53;;
18251;SDS011;26917;52.328;20.878;2023-03-14T14:04:28;17.00;;;8.15;;
18251;SDS011;26917;52.328;20.878;2023-03-14T14:07:00;14.93;;;8.20;;
18251;SDS011;26917;52.328;20.878;2023-03-14T14:09:35;13.30;;;7.40;;
18251;SDS011;26917;52.328;20.878;2023-03-14T14:12:07;16.25;;;7.47;;
18251;SDS011;26917;52.328;20.878;2023-03-14T14:14:43;16.98;;;7.68;;
18251;SDS011;26917;52.328;20.878;2023-03-14T14:17:15;16.80;;;7.70;;
18251;SDS011;26917;52.328;20.878;2023-03-14T14:19:49;13.93;;;7.47;;
18251;SDS011;26917;52.328;20.878;2023-03-14T14:22:19;10.80;;;7.38;;
18251;SDS011;26917;52.328;20.878;2023-03-14T14:24:49;8.75;;;6.40;;
18251;SDS011;26917;52.328;20.878;2023-03-14T14:27:19;14.65;;;8.45;;
18251;SDS011;26917;52.328;20.878;2023-03-14T14:29:59;12.23;;;7.00;;
18251;SDS011;26917;52.328;20.878;2023-03-14T14:32:34;12.68;;;7.00;;
18251;SDS011;26917;52.328;20.878;2023-03-14T14:35:05;15.88;;;7.68;;
18251;SDS011;26917;52.328;20.878;2023-03-14T14:37:35;11.45;;;7.28;;
18251;SDS011;26917;52.328;20.878;2023-03-14T14:40:14;16.20;;;8.63;;
18251;SDS011;26917;52.328;20.878;2023-03-14T14:42:46;12.63;;;7.63;;
18251;SDS011;26917;52.328;20.878;2023-03-14T14:45:16;13.93;;;8.00;;
18251;SDS011;26917;52.328;20.878;2023-03-14T14:47:50;16.60;;;8.43;;
18251;SDS011;26917;52.328;20.878;2023-03-14T14:50:28;11.90;;;7.53;;
18251;SDS011;26917;52.328;20.878;2023-03-14T14:52:59;14.82;;;8.02;;
18251;SDS011;26917;52.328;20.878;2023-03-14T14:55:30;13.63;;;8.57;;
18251;SDS011;26917;52.328;20.878;2023-03-14T14:58:11;14.85;;;8.55;;
18251;SDS011;26917;52.328;20.878;2023-03-14T15:00:49;15.60;;;8.05;;
18251;SDS011;26917;52.328;20.878;2023-03-14T15:03:20;13.57;;;9.07;;
18251;SDS011;26917;52.328;20.878;2023-03-14T15:05:52;15.10;;;8.65;;
18251;SDS011;26917;52.328;20.878;2023-03-14T15:08:21;13.43;;;8.85;;
18251;SDS011;26917;52.328;20.878;2023-03-14T15:10:50;17.52;;;9.48;;
18251;SDS011;26917;52.328;20.878;2023-03-14T15:13:18;15.95;;;9.27;;
18251;SDS011;26917;52.328;20.878;2023-03-14T15:15:46;25.20;;;9.95;;